Time;durP1;ratioP1;P1;durP2;ratioP2;P2;SDS_P1;SDS_P2;PMS_P1;PMS_P2;Temp;Humidity;BMP_temperature;BMP_pressure;BME280_temperature;BME280_humidity;BME280_pressure;Samples;Min_cycle;Max_cycle;Signal;HPM_P1;HPM_P2
2023/07/08 00:00:27;;;;;;;5.25;2.78;;;28.00;96.70;;;;;;5060885;28;20056;-69
2023/07/08 00:02:55;;;;;;;3.70;2.75;;;28.00;96.70;;;;;;5060398;28;20161;-69
2023/07/08 00:05:27;;;;;;;7.95;3.30;;;27.90;96.70;;;;;;5044369;28;20509;-69
2023/07/08 00:07:59;;;;;;;4.90;3.00;;;27.90;96.70;;;;;;5070682;28;20051;-70
2023/07/08 00:10:29;;;;;;;3.78;2.85;;;27.70;96.70;;;;;;5072820;28;20669;-70
2023/07/08 00:12:58;;;;;;;3.63;2.80;;;27.60;96.70;;;;;;5063319;28;20085;-70
2023/07/08 00:15:28;;;;;;;4.72;2.42;;;27.50;96.70;;;;;;5083753;28;20070;-70
2023/07/08 00:17:56;;;;;;;4.70;2.92;;;27.50;96.70;;;;;;5075573;28;20127;-70
2023/07/08 00:20:34;;;;;;;5.22;2.85;;;27.50;96.70;;;;;;5079337;28;20075;-70
2023/07/08 00:23:02;;;;;;;4.07;3.22;;;27.40;96.70;;;;;;5077757;28;20071;-70
2023/07/08 00:25:32;;;;;;;5.15;2.97;;;27.30;96.70;;;;;;5075684;28;20067;-70
2023/07/08 00:28:00;;;;;;;4.45;2.83;;;27.30;96.70;;;;;;5073808;28;20147;-70
2023/07/08 00:30:30;;;;;;;5.63;2.95;;;27.40;96.70;;;;;;5075098;28;20515;-70
2023/07/08 00:32:59;;;;;;;4.15;2.63;;;27.40;96.70;;;;;;5078870;28;20482;-70
2023/07/08 00:35:34;;;;;;;4.22;2.80;;;27.30;96.70;;;;;;5077588;28;20039;-69
2023/07/08 00:38:15;;;;;;;4.38;3.28;;;27.30;96.70;;;;;;5073664;28;20499;-69
2023/07/08 00:40:51;;;;;;;3.33;2.90;;;27.40;96.70;;;;;;5081161;28;20044;-69
2023/07/08 00:43:27;;;;;;;3.50;2.80;;;27.20;96.70;;;;;;5068540;28;20056;-69
2023/07/08 00:46:11;;;;;;;3.63;2.90;;;27.00;96.70;;;;;;5081028;28;20054;-69
2023/07/08 00:48:40;;;;;;;3.75;3.08;;;26.90;96.70;;;;;;5078526;28;20044;-69
2023/07/08 00:51:12;;;;;;;5.50;2.97;;;26.80;96.70;;;;;;5075265;28;21511;-69
2023/07/08 00:53:40;;;;;;;4.05;2.55;;;26.90;96.70;;;;;;5074295;28;20048;-69
2023/07/08 00:56:12;;;;;;;5.90;2.97;;;26.90;96.70;;;;;;5074385;28;20040;-69
2023/07/08 00:58:44;;;;;;;3.92;2.83;;;27.00;96.70;;;;;;5071657;28;20065;-69
2023/07/08 01:01:13;;;;;;;5.93;3.17;;;27.00;96.70;;;;;;5070096;28;20060;-69
2023/07/08 01:03:48;;;;;;;5.57;3.40;;;27.10;96.70;;;;;;5077503;28;20151;-69
2023/07/08 01:06:19;;;;;;;;;;;27.10;96.70;;;;;;5074434;28;20044;-69
2023/07/08 01:08:52;;;;;;;3.67;3.03;;;27.10;96.70;;;;;;5091726;28;20451;-69
2023/07/08 01:11:22;;;;;;;5.45;3.22;;;27.00;96.70;;;;;;5084776;28;20040;-69
2023/07/08 01:13:53;;;;;;;4.63;2.90;;;27.10;96.70;;;;;;5072497;28;20037;-69
2023/07/08 01:16:22;;;;;;;3.83;3.05;;;27.00;96.70;;;;;;5067566;28;20155;-69
2023/07/08 01:18:53;;;;;;;3.92;2.80;;;26.90;96.70;;;;;;5079215;28;20055;-69
2023/07/08 01:21:33;;;;;;;4.82;2.70;;;26.80;96.70;;;;;;5077830;28;20047;-69
2023/07/08 01:24:06;;;;;;;5.93;2.83;;;26.80;96.70;;;;;;5064111;28;20050;-69
2023/07/08 01:26:37;;;;;;;3.50;2.47;;;26.80;96.70;;;;;;5078623;28;20047;-69
2023/07/08 01:29:07;;;;;;;3.55;2.65;;;26.80;96.70;;;;;;5070482;28;20045;-69
2023/07/08 01:31:35;;;;;;;4.70;2.97;;;26.80;96.70;;;;;;5082394;28;20523;-69
2023/07/08 01:34:05;;;;;;;3.92;2.72;;;26.80;96.70;;;;;;5077935;28;20044;-69
2023/07/08 01:36:42;;;;;;;5.25;2.95;;;26.80;96.70;;;;;;5084040;28;20601;-69
2023/07/08 01:39:15;;;;;;;4.82;3.00;;;26.80;96.70;;;;;;5051282;28;20051;-69
2023/07/08 01:41:43;;;;;;;3.72;2.65;;;26.80;96.70;;;;;;5071229;28;20044;-69
2023/07/08 01:44:28;;;;;;;4.13;2.70;;;26.70;96.70;;;;;;5079784;28;20133;-69
2023/07/08 01:47:00;;;;;;;5.57;2.85;;;26.80;96.70;;;;;;5070363;28;20123;-69
2023/07/08 01:49:29;;;;;;;6.40;3.00;;;26.80;96.70;;;;;;5049328;28;20059;-69
2023/07/08 01:51:58;;;;;;;4.60;2.75;;;26.70;96.70;;;;;;5076677;28;20560;-69
2023/07/08 01:54:28;;;;;;;4.63;3.42;;;26.70;96.70;;;;;;5071494;28;20114;-69
2023/07/08 01:56:56;;;;;;;3.55;2.70;;;26.70;96.70;;;;;;5074978;28;20070;-69
2023/07/08 01:59:25;;;;;;;5.40;3.17;;;26.70;96.70;;;;;;5068790;28;20044;-69
2023/07/08 02:01:54;;;;;;;5.80;3.00;;;26.60;96.70;;;;;;5066559;28;20521;-69
2023/07/08 02:04:25;;;;;;;4.85;2.92;;;26.60;96.70;;;;;;5078243;28;20044;-69
2023/07/08 02:06:55;;;;;;;3.42;2.33;;;26.60;96.70;;;;;;5067467;28;20079;-69
2023/07/08 02:09:24;;;;;;;3.72;2.92;;;26.60;96.70;;;;;;5069156;28;20067;-69
2023/07/08 02:11:55;;;;;;;3.53;2.90;;;26.50;96.70;;;;;;5073564;28;20037;-69
2023/07/08 02:14:23;;;;;;;3.35;2.90;;;26.50;96.70;;;;;;5052249;28;20048;-69
2023/07/08 02:16:52;;;;;;;4.80;3.17;;;26.60;96.70;;;;;;5050351;28;20047;-69
2023/07/08 02:19:21;;;;;;;3.15;2.65;;;26.70;96.70;;;;;;5072887;28;20099;-69
2023/07/08 02:21:51;;;;;;;5.57;3.10;;;26.50;96.70;;;;;;5074104;28;20093;-69
2023/07/08 02:24:20;;;;;;;3.75;3.00;;;26.50;96.70;;;;;;5079613;28;20052;-69
2023/07/08 02:26:48;;;;;;;3.65;2.90;;;26.50;96.70;;;;;;5072324;28;20036;-69
2023/07/08 02:29:17;;;;;;;3.40;2.70;;;26.50;96.70;;;;;;5054271;28;20476;-69
2023/07/08 02:31:45;;;;;;;3.53;2.67;;;26.50;96.70;;;;;;5063351;28;20112;-69
2023/07/08 02:34:14;;;;;;;4.78;2.72;;;26.40;96.70;;;;;;5074372;28;20052;-69
2023/07/08 02:36:43;;;;;;;4.18;2.97;;;26.40;96.70;;;;;;5081769;28;20721;-69
2023/07/08 02:39:12;;;;;;;5.50;2.78;;;26.40;96.70;;;;;;5071985;28;20056;-69
2023/07/08 02:41:40;;;;;;;8.32;2.45;;;26.40;96.70;;;;;;5073741;28;20048;-69
2023/07/08 02:44:09;;;;;;;3.33;2.70;;;26.40;96.70;;;;;;5064194;28;20044;-69
2023/07/08 02:46:38;;;;;;;5.00;3.30;;;26.30;96.70;;;;;;5079688;28;20140;-69
2023/07/08 02:49:07;;;;;;;3.33;2.28;;;26.30;96.70;;;;;;5072118;28;20056;-70
2023/07/08 02:51:36;;;;;;;3.35;2.33;;;26.20;96.70;;;;;;5067281;28;20073;-69
2023/07/08 02:54:04;;;;;;;3.13;2.22;;;26.10;96.70;;;;;;5056390;28;20052;-70
2023/07/08 02:56:32;;;;;;;3.50;2.38;;;26.10;96.70;;;;;;5067859;28;20114;-70
2023/07/08 02:59:00;;;;;;;3.08;2.67;;;26.20;96.70;;;;;;5057645;28;20050;-70
2023/07/08 03:01:28;;;;;;;2.85;2.38;;;26.20;96.70;;;;;;5055936;28;20040;-70
2023/07/08 03:04:00;;;;;;;4.68;2.42;;;26.10;96.70;;;;;;5066150;28;20082;-70
2023/07/08 03:06:28;;;;;;;2.80;2.42;;;26.10;96.70;;;;;;5066042;28;20513;-70
2023/07/08 03:08:56;;;;;;;4.40;2.75;;;26.10;96.70;;;;;;5076521;28;20424;-70
2023/07/08 03:11:24;;;;;;;4.50;2.70;;;26.10;96.70;;;;;;5072816;28;20068;-70
2023/07/08 03:13:52;;;;;;;3.25;2.58;;;26.00;96.70;;;;;;5075634;28;20645;-70
2023/07/08 03:16:20;;;;;;;4.85;2.58;;;26.10;96.70;;;;;;5080803;28;20071;-70
2023/07/08 03:18:48;;;;;;;4.47;2.72;;;26.00;96.70;;;;;;5077992;28;20036;-69
2023/07/08 03:21:19;;;;;;;3.30;2.50;;;26.00;96.70;;;;;;5094130;28;20059;-69
2023/07/08 03:23:49;;;;;;;4.15;2.70;;;26.00;96.70;;;;;;5070112;28;20059;-69
2023/07/08 03:26:18;;;;;;;5.63;3.40;;;26.00;96.70;;;;;;5079875;28;20694;-69
2023/07/08 03:28:48;;;;;;;4.07;2.80;;;26.00;96.70;;;;;;5056628;28;20114;-69
2023/07/08 03:31:17;;;;;;;4.13;2.33;;;26.00;96.70;;;;;;5081438;28;20105;-69
2023/07/08 03:33:45;;;;;;;3.95;2.63;;;26.00;96.70;;;;;;5078360;28;20434;-69
2023/07/08 03:36:23;;;;;;;4.85;2.97;;;26.00;96.70;;;;;;5081036;28;20055;-69
2023/07/08 03:38:52;;;;;;;7.22;2.47;;;25.90;96.70;;;;;;5069532;28;20052;-69
2023/07/08 03:41:20;;;;;;;4.85;3.03;;;25.80;96.70;;;;;;5067421;28;20140;-69
2023/07/08 03:43:50;;;;;;;3.97;2.75;;;25.70;96.70;;;;;;5076714;28;20049;-69
2023/07/08 03:46:21;;;;;;;4.72;2.78;;;25.60;96.70;;;;;;5076966;28;20064;-69
2023/07/08 03:48:51;;;;;;;4.47;2.67;;;25.60;96.70;;;;;;5064072;28;20804;-69
2023/07/08 03:51:24;;;;;;;3.92;2.80;;;25.60;96.70;;;;;;5077959;28;20090;-70
2023/07/08 03:53:52;;;;;;;3.13;2.45;;;25.50;96.70;;;;;;5076868;28;20044;-69
2023/07/08 03:56:22;;;;;;;3.67;3.13;;;25.50;96.70;;;;;;5086443;28;20048;-69
2023/07/08 03:58:50;;;;;;;4.38;2.80;;;25.60;96.70;;;;;;5081369;28;20047;-69
2023/07/08 04:01:20;;;;;;;4.60;3.10;;;25.60;96.70;;;;;;5077415;28;20048;-69
2023/07/08 04:03:50;;;;;;;7.38;3.75;;;25.60;96.70;;;;;;5059336;28;20076;-69
2023/07/08 04:06:18;;;;;;;5.22;3.60;;;25.60;96.70;;;;;;5084657;28;20458;-70
2023/07/08 04:08:48;;;;;;;5.35;3.08;;;25.70;96.70;;;;;;5070315;28;20063;-69
2023/07/08 04:11:18;;;;;;;7.60;3.42;;;25.80;96.70;;;;;;5064558;28;20052;-69
2023/07/08 04:13:54;;;;;;;3.67;2.47;;;25.60;96.70;;;;;;5083876;28;20519;-69
2023/07/08 04:16:30;;;;;;;5.38;2.63;;;25.70;96.70;;;;;;5070181;28;20076;-69
2023/07/08 04:18:58;;;;;;;;;;;25.80;96.70;;;;;;5076906;28;20049;-69
2023/07/08 04:21:52;;;;;;;5.55;2.45;;;25.80;96.70;;;;;;5082723;28;19997;-69
2023/07/08 04:24:25;;;;;;;4.88;2.58;;;25.80;96.70;;;;;;5069612;28;20054;-70
2023/07/08 04:26:54;;;;;;;4.93;2.67;;;25.80;96.70;;;;;;5077135;28;20127;-69
2023/07/08 04:29:22;;;;;;;4.82;2.53;;;25.80;96.70;;;;;;5073639;28;20445;-69
2023/07/08 04:31:50;;;;;;;3.55;2.50;;;25.80;96.70;;;;;;5065232;28;20044;-70
2023/07/08 04:34:19;;;;;;;3.33;2.42;;;25.90;96.70;;;;;;5074514;28;20550;-70
2023/07/08 04:36:55;;;;;;;5.35;2.88;;;26.00;96.70;;;;;;5085493;28;20049;-69
2023/07/08 04:39:27;;;;;;;4.28;2.67;;;26.00;96.70;;;;;;5079757;28;20044;-70
2023/07/08 04:41:59;;;;;;;4.15;2.67;;;25.90;96.70;;;;;;5083165;28;20424;-70
2023/07/08 04:44:27;;;;;;;3.80;2.78;;;25.90;96.70;;;;;;5071572;28;20049;-70
2023/07/08 04:46:57;;;;;;;4.55;2.58;;;25.80;96.70;;;;;;5072954;28;20036;-70
2023/07/08 04:49:27;;;;;;;4.00;2.50;;;25.80;96.70;;;;;;5084326;28;20450;-69
2023/07/08 04:51:55;;;;;;;3.45;2.30;;;25.90;96.70;;;;;;5071514;28;20046;-69
2023/07/08 04:54:25;;;;;;;3.15;2.78;;;25.90;96.70;;;;;;5064614;28;20109;-70
2023/07/08 04:56:53;;;;;;;3.50;2.83;;;26.00;96.70;;;;;;5074164;28;20513;-69
2023/07/08 04:59:23;;;;;;;4.85;2.97;;;26.10;96.70;;;;;;5064489;28;20044;-69
2023/07/08 05:01:52;;;;;;;3.67;2.63;;;26.20;96.70;;;;;;5084117;28;20079;-69
2023/07/08 05:04:22;;;;;;;4.32;3.30;;;26.20;96.70;;;;;;5085079;28;20036;-69
2023/07/08 05:06:50;;;;;;;4.65;3.33;;;26.20;96.70;;;;;;5084308;28;20124;-69
2023/07/08 05:09:18;;;;;;;5.90;3.50;;;26.20;96.70;;;;;;5086473;28;20051;-69
2023/07/08 05:11:48;;;;;;;4.22;2.92;;;26.30;96.70;;;;;;5078935;28;20420;-69
2023/07/08 05:14:16;;;;;;;4.43;2.83;;;26.20;96.70;;;;;;5083461;28;20688;-69
2023/07/08 05:16:55;;;;;;;4.18;3.08;;;26.30;96.70;;;;;;5083889;28;20501;-69
2023/07/08 05:19:24;;;;;;;5.60;2.92;;;26.40;96.70;;;;;;5083571;28;20094;-69
2023/07/08 05:21:53;;;;;;;5.22;3.20;;;26.30;96.70;;;;;;5067269;28;20459;-69
2023/07/08 05:24:21;;;;;;;4.15;2.60;;;26.30;96.70;;;;;;5069083;28;20068;-69
2023/07/08 05:26:50;;;;;;;3.40;2.83;;;26.40;96.70;;;;;;5083489;28;20401;-69
2023/07/08 05:29:24;;;;;;;4.47;2.58;;;26.30;96.70;;;;;;5076403;28;20047;-69
2023/07/08 05:31:59;;;;;;;4.80;2.90;;;26.30;96.70;;;;;;5072614;28;20055;-71
2023/07/08 05:34:27;;;;;;;4.68;2.75;;;26.20;96.70;;;;;;5065262;28;20068;-70
2023/07/08 05:36:55;;;;;;;4.80;2.97;;;26.20;96.70;;;;;;5068581;28;20060;-70
2023/07/08 05:39:23;;;;;;;3.90;2.35;;;26.30;96.70;;;;;;5075361;28;20099;-70
2023/07/08 05:42:06;;;;;;;5.15;2.60;;;26.30;96.70;;;;;;5066821;28;20070;-70
2023/07/08 05:44:34;;;;;;;3.97;2.40;;;26.40;96.70;;;;;;5075274;28;20144;-70
2023/07/08 05:47:02;;;;;;;6.57;2.47;;;26.40;96.70;;;;;;5085064;28;20040;-70
2023/07/08 05:49:30;;;;;;;7.07;2.85;;;26.40;96.70;;;;;;5075515;28;20052;-70
2023/07/08 05:51:58;;;;;;;3.97;2.50;;;26.60;96.70;;;;;;5078825;28;20056;-70
2023/07/08 05:54:26;;;;;;;4.75;2.83;;;26.70;96.70;;;;;;5053172;28;20139;-70
2023/07/08 05:56:54;;;;;;;3.13;2.70;;;26.70;96.70;;;;;;5084040;28;20044;-70
2023/07/08 05:59:24;;;;;;;5.85;2.53;;;26.90;96.70;;;;;;5068935;28;20454;-70
2023/07/08 06:01:52;;;;;;;6.97;2.90;;;26.80;96.70;;;;;;5077680;28;20123;-70
2023/07/08 06:04:21;;;;;;;5.20;2.58;;;26.80;96.70;;;;;;5079044;28;20036;-70
2023/07/08 06:06:49;;;;;;;7.95;2.75;;;26.80;96.70;;;;;;5085704;28;20044;-69
2023/07/08 06:09:17;;;;;;;5.93;3.13;;;26.70;96.70;;;;;;5076699;28;20040;-70
2023/07/08 06:11:45;;;;;;;4.18;2.50;;;26.80;96.70;;;;;;5083632;28;20058;-71
2023/07/08 06:14:13;;;;;;;5.75;2.65;;;26.80;96.70;;;;;;5073199;28;20044;-70
2023/07/08 06:16:42;;;;;;;4.80;2.50;;;26.80;96.70;;;;;;5065797;28;20098;-70
2023/07/08 06:19:17;;;;;;;2.90;2.17;;;26.80;96.70;;;;;;5078018;28;20059;-70
2023/07/08 06:21:45;;;;;;;4.28;2.70;;;26.80;96.70;;;;;;5079840;28;20284;-70
2023/07/08 06:24:12;;;;;;;5.32;3.28;;;26.80;96.70;;;;;;5067862;28;20041;-70
2023/07/08 06:26:40;;;;;;;4.10;2.60;;;26.80;96.70;;;;;;5055501;28;20865;-70
2023/07/08 06:29:08;;;;;;;3.60;2.67;;;26.90;96.70;;;;;;5065094;28;20123;-70
2023/07/08 06:31:36;;;;;;;4.50;2.78;;;27.00;96.70;;;;;;5063218;28;20143;-72
2023/07/08 06:34:05;;;;;;;5.97;3.90;;;27.10;96.70;;;;;;5067380;28;20552;-72
2023/07/08 06:36:33;;;;;;;5.85;3.90;;;27.30;96.70;;;;;;5066171;28;20063;-72
2023/07/08 06:39:01;;;;;;;9.63;4.05;;;27.30;96.70;;;;;;5063396;28;20193;-72
2023/07/08 06:41:29;;;;;;;6.30;2.88;;;27.40;96.70;;;;;;5075406;28;20106;-72
2023/07/08 06:43:57;;;;;;;7.75;2.92;;;27.60;96.70;;;;;;5066230;28;20067;-70
2023/07/08 06:46:28;;;;;;;5.63;3.20;;;27.80;96.70;;;;;;5065396;28;20072;-69
2023/07/08 06:48:56;;;;;;;5.43;3.28;;;28.00;96.70;;;;;;5068029;28;20086;-69
2023/07/08 06:51:27;;;;;;;6.88;3.03;;;28.00;96.70;;;;;;5066607;28;20040;-70
2023/07/08 06:53:59;;;;;;;5.85;3.22;;;28.00;96.70;;;;;;5065454;28;20078;-70
2023/07/08 06:57:16;;;;;;;5.70;3.05;;;28.10;96.70;;;;;;5000771;28;20084;-70
2023/07/08 06:59:48;;;;;;;10.75;3.08;;;28.20;96.70;;;;;;5001616;28;20057;-69
2023/07/08 07:02:17;;;;;;;3.95;3.08;;;28.30;96.70;;;;;;4972315;28;20058;-70
2023/07/08 07:04:45;;;;;;;5.50;2.92;;;28.40;96.70;;;;;;4999130;28;20054;-71
2023/07/08 07:07:14;;;;;;;6.53;3.30;;;28.40;96.70;;;;;;4976127;28;20065;-71
2023/07/08 07:09:42;;;;;;;11.18;3.45;;;28.30;96.70;;;;;;4974328;28;20054;-70
2023/07/08 07:12:10;;;;;;;8.10;3.20;;;28.20;96.70;;;;;;4999862;28;20053;-71
2023/07/08 07:14:38;;;;;;;7.85;2.90;;;28.20;96.70;;;;;;4971144;28;20058;-70
2023/07/08 07:17:09;;;;;;;3.50;2.58;;;28.30;96.70;;;;;;4990518;28;20105;-71
2023/07/08 07:19:37;;;;;;;10.18;2.70;;;28.40;96.70;;;;;;4982403;28;20057;-70
2023/07/08 07:22:06;;;;;;;6.15;2.50;;;28.50;96.70;;;;;;5000508;28;20062;-70
2023/07/08 07:24:58;;;;;;;8.30;3.20;;;28.40;96.70;;;;;;5001748;28;20054;-71
2023/07/08 07:27:26;;;;;;;3.83;2.83;;;28.40;96.70;;;;;;4937979;28;20470;-70
2023/07/08 07:30:24;;;;;;;5.60;2.97;;;28.50;96.70;;;;;;4976037;28;20042;-71
2023/07/08 07:32:52;;;;;;;6.00;2.58;;;28.70;96.70;;;;;;4996189;28;20159;-70
2023/07/08 07:35:21;;;;;;;4.80;2.50;;;28.80;96.70;;;;;;5070818;28;20040;-71
2023/07/08 07:37:49;;;;;;;7.85;5.05;;;28.90;96.70;;;;;;5077528;28;20080;-71
2023/07/08 07:40:19;;;;;;;8.35;3.03;;;29.10;96.70;;;;;;5071810;28;20071;-70
2023/07/08 07:42:47;;;;;;;3.83;2.67;;;29.30;96.70;;;;;;5081353;28;20127;-70
2023/07/08 07:45:15;;;;;;;6.03;3.03;;;29.50;96.70;;;;;;5083036;28;20043;-71
2023/07/08 07:47:43;;;;;;;7.03;3.13;;;29.50;96.70;;;;;;5083427;28;20090;-71
2023/07/08 07:50:11;;;;;;;3.80;2.55;;;29.60;96.70;;;;;;5084069;28;20135;-71
2023/07/08 07:52:40;;;;;;;4.53;2.33;;;29.70;96.70;;;;;;5077387;28;20099;-71
2023/07/08 07:55:08;;;;;;;6.28;2.80;;;29.80;96.70;;;;;;5075897;28;20047;-70
2023/07/08 07:57:38;;;;;;;5.68;2.97;;;29.90;96.70;;;;;;5081851;28;20133;-71
2023/07/08 08:00:08;;;;;;;10.98;3.10;;;29.90;96.70;;;;;;5068542;28;20555;-72
2023/07/08 08:02:39;;;;;;;5.60;2.72;;;29.90;96.70;;;;;;5081482;28;20060;-71
2023/07/08 08:05:08;;;;;;;4.00;2.58;;;29.80;96.70;;;;;;5080728;28;20047;-71
2023/07/08 08:07:36;;;;;;;6.75;2.63;;;29.70;96.70;;;;;;5081531;28;20113;-71
2023/07/08 08:10:05;;;;;;;39.65;6.78;;;29.70;96.70;;;;;;5082270;28;20119;-70
2023/07/08 08:12:33;;;;;;;7.28;2.50;;;29.70;96.70;;;;;;5082075;28;20752;-71
2023/07/08 08:15:20;;;;;;;12.77;3.75;;;29.70;96.70;;;;;;5081099;28;20040;-71
2023/07/08 08:17:51;;;;;;;5.68;2.53;;;29.70;96.70;;;;;;5066399;28;21039;-72
2023/07/08 08:20:22;;;;;;;6.40;3.15;;;29.70;96.70;;;;;;5066089;28;20516;-71
2023/07/08 08:22:54;;;;;;;4.82;2.65;;;29.50;96.70;;;;;;5083819;28;20493;-71
2023/07/08 08:25:26;;;;;;;13.27;3.15;;;29.50;96.70;;;;;;5080954;28;20070;-71
2023/07/08 08:27:58;;;;;;;7.47;3.08;;;29.40;96.70;;;;;;5056319;28;20045;-71
2023/07/08 08:30:28;;;;;;;5.32;2.47;;;29.40;96.70;;;;;;5075441;28;20547;-71
2023/07/08 08:32:56;;;;;;;5.72;2.80;;;29.50;96.70;;;;;;5068655;28;20420;-71
2023/07/08 08:35:24;;;;;;;4.43;2.72;;;29.60;96.70;;;;;;5073133;28;20048;-73
2023/07/08 08:37:53;;;;;;;4.68;2.92;;;29.60;96.70;;;;;;5067243;28;20637;-70
2023/07/08 08:40:21;;;;;;;4.10;3.10;;;29.60;96.70;;;;;;5078924;28;20172;-70
2023/07/08 08:42:57;;;;;;;6.18;4.07;;;29.70;96.70;;;;;;5085555;28;20055;-71
2023/07/08 08:45:32;;;;;;;8.10;4.18;;;29.80;96.70;;;;;;5080749;28;20109;-71
2023/07/08 08:48:03;;;;;;;5.75;3.20;;;29.90;96.70;;;;;;5076313;28;20049;-70
2023/07/08 08:50:36;;;;;;;3.50;2.63;;;29.90;96.70;;;;;;5079513;28;20488;-72
2023/07/08 08:53:08;;;;;;;4.97;3.53;;;30.00;96.70;;;;;;5081942;28;20406;-72
2023/07/08 08:55:36;;;;;;;5.65;3.30;;;30.10;96.70;;;;;;5071644;28;20055;-72
2023/07/08 08:58:21;;;;;;;5.75;3.47;;;30.20;96.70;;;;;;5079726;28;20048;-72
2023/07/08 09:00:55;;;;;;;4.57;3.10;;;30.30;96.70;;;;;;5059962;28;20041;-72
2023/07/08 09:03:41;;;;;;;4.90;3.35;;;30.30;96.70;;;;;;5076476;28;20467;-72
2023/07/08 09:06:18;;;;;;;4.72;2.80;;;30.30;96.70;;;;;;5075524;28;20056;-72
2023/07/08 09:08:47;;;;;;;5.57;3.38;;;30.20;96.70;;;;;;5066750;28;20513;-72
2023/07/08 09:11:40;;;;;;;7.25;3.70;;;30.20;96.70;;;;;;5083658;28;20040;-72
2023/07/08 09:14:19;;;;;;;4.55;3.20;;;30.20;96.70;;;;;;5086269;28;20393;-70
2023/07/08 09:16:56;;;;;;;5.05;3.05;;;30.30;96.70;;;;;;5085847;28;20572;-70
2023/07/08 09:19:29;;;;;;;4.22;3.30;;;30.40;96.70;;;;;;5071528;28;20048;-70
2023/07/08 09:22:03;;;;;;;6.55;3.22;;;30.50;96.70;;;;;;5082205;28;20408;-70
2023/07/08 09:24:41;;;;;;;4.30;2.70;;;30.60;96.70;;;;;;5082788;28;20051;-70
2023/07/08 09:27:09;;;;;;;12.80;11.35;;;30.60;96.70;;;;;;5071423;28;20040;-70
2023/07/08 09:29:37;;;;;;;6.82;4.22;;;30.60;96.70;;;;;;5075150;28;20036;-73
2023/07/08 09:32:17;;;;;;;4.55;3.20;;;30.70;96.70;;;;;;5064484;28;20041;-73
2023/07/08 09:34:49;;;;;;;4.85;3.53;;;30.80;96.70;;;;;;5074175;28;20047;-72
2023/07/08 09:37:27;;;;;;;3.75;2.92;;;30.80;96.70;;;;;;5074810;28;20066;-72
2023/07/08 09:39:58;;;;;;;4.05;3.17;;;30.70;96.70;;;;;;5072162;28;20040;-73
2023/07/08 09:42:29;;;;;;;5.50;3.00;;;30.90;96.70;;;;;;5082933;28;20386;-73
2023/07/08 09:44:58;;;;;;;6.05;3.22;;;30.90;96.70;;;;;;5083891;28;20047;-73
2023/07/08 09:47:33;;;;;;;7.35;4.40;;;30.90;96.70;;;;;;5080812;28;20041;-74
2023/07/08 09:50:18;;;;;;;31.05;27.83;;;31.00;96.70;;;;;;5078148;28;20056;-73
2023/07/08 09:53:04;;;;;;;5.90;3.80;;;31.20;96.70;;;;;;5050982;28;20102;-73
2023/07/08 09:55:33;;;;;;;5.95;3.60;;;31.30;96.70;;;;;;5077092;28;20054;-73
2023/07/08 09:58:02;;;;;;;6.07;3.83;;;31.40;96.70;;;;;;5076403;28;20076;-70
2023/07/08 10:00:38;;;;;;;5.03;3.00;;;31.40;96.70;;;;;;5080711;28;20469;-73
2023/07/08 10:06:18;;;;;;;4.85;3.30;;;31.70;96.70;;;;;;5120985;23;20069;-79
2023/07/08 10:08:46;;;;;;;3.78;3.38;;;31.90;96.70;;;;;;4943217;28;20071;-80
2023/07/08 10:11:26;;;;;;;4.50;3.45;;;31.90;96.70;;;;;;4945999;28;20047;-79
2023/07/08 10:13:59;;;;;;;4.95;3.40;;;31.90;96.70;;;;;;4947636;28;20051;-80
2023/07/08 10:16:41;;;;;;;5.28;2.90;;;31.80;96.70;;;;;;4946713;28;20539;-79
2023/07/08 10:19:13;;;;;;;4.22;3.05;;;31.70;96.70;;;;;;4961844;28;20071;-80
2023/07/08 10:21:51;;;;;;;7.07;3.47;;;31.90;96.70;;;;;;4961457;28;20421;-80
2023/07/08 10:24:36;;;;;;;5.47;3.40;;;32.00;96.70;;;;;;4961388;28;20039;-81
2023/07/08 10:27:14;;;;;;;6.25;3.50;;;32.20;96.70;;;;;;4945397;29;20057;-80
2023/07/08 10:29:52;;;;;;;5.55;3.75;;;32.30;96.70;;;;;;4947725;28;20053;-81
2023/07/08 10:32:29;;;;;;;5.38;3.35;;;32.50;96.70;;;;;;4952164;28;20046;-79
2023/07/08 10:35:03;;;;;;;6.40;3.08;;;32.50;96.70;;;;;;4945787;28;20058;-82
2023/07/08 10:37:41;;;;;;;5.63;2.95;;;32.50;96.70;;;;;;4944373;28;20128;-82
2023/07/08 10:40:27;;;;;;;5.78;2.97;;;32.60;96.70;;;;;;4948518;28;20094;-82
2023/07/08 10:43:17;;;;;;;4.13;2.85;;;32.60;96.70;;;;;;4927771;29;20092;-82
2023/07/08 10:45:52;;;;;;;7.10;3.70;;;32.90;96.70;;;;;;4947946;28;20458;-82
2023/07/08 10:48:46;;;;;;;5.25;3.08;;;32.80;96.70;;;;;;4930571;28;20059;-81
2023/07/08 10:51:24;;;;;;;6.15;3.38;;;33.00;96.70;;;;;;4951895;28;20059;-81
2023/07/08 10:54:17;;;;;;;6.18;3.15;;;33.00;96.70;;;;;;4961251;28;20090;-80
2023/07/08 10:56:53;;;;;;;5.90;3.38;;;32.90;96.70;;;;;;4933229;29;20042;-80
2023/07/08 10:59:38;;;;;;;9.43;3.53;;;32.90;96.70;;;;;;4952027;28;20140;-80
2023/07/08 11:02:28;;;;;;;5.97;3.40;;;33.00;96.70;;;;;;4932022;29;20059;-80
2023/07/08 11:05:10;;;;;;;9.10;3.50;;;33.30;96.70;;;;;;4946760;28;20051;-79
2023/07/08 11:07:43;;;;;;;4.65;3.40;;;33.30;96.70;;;;;;4943315;28;20169;-78
2023/07/08 11:10:18;;;;;;;5.03;3.55;;;33.30;96.70;;;;;;4960488;28;20047;-80
2023/07/08 11:12:49;;;;;;;6.13;3.28;;;33.40;96.70;;;;;;4957890;28;20061;-78
2023/07/08 11:15:30;;;;;;;4.80;2.90;;;33.40;96.70;;;;;;4946588;28;20663;-78
2023/07/08 11:18:02;;;;;;;3.22;2.70;;;33.40;96.30;;;;;;4952583;28;20637;-78
2023/07/08 11:20:39;;;;;;;6.45;3.55;;;33.40;96.70;;;;;;4960265;28;20047;-79
2023/07/08 11:23:17;;;;;;;5.32;3.95;;;33.40;96.70;;;;;;4943006;29;20509;-79
2023/07/08 11:25:48;;;;;;;5.47;3.38;;;33.50;96.70;;;;;;4944601;28;20047;-78
2023/07/08 11:28:20;;;;;;;9.55;7.32;;;33.70;96.70;;;;;;4960746;28;20061;-79
2023/07/08 11:30:51;;;;;;;7.63;5.07;;;33.90;96.70;;;;;;4960730;28;20048;-80
2023/07/08 11:33:24;;;;;;;5.20;3.13;;;34.10;96.70;;;;;;4952052;28;20139;-82
2023/07/08 11:35:58;;;;;;;5.80;3.50;;;34.30;96.70;;;;;;4944199;28;20340;-79
2023/07/08 11:38:26;;;;;;;6.70;3.42;;;34.30;96.70;;;;;;4959358;28;20102;-79
2023/07/08 11:40:58;;;;;;;5.40;3.20;;;34.50;96.10;;;;;;4946427;28;20406;-80
2023/07/08 11:43:33;;;;;;;5.43;3.05;;;34.70;96.30;;;;;;4960443;28;20511;-80
2023/07/08 11:46:06;;;;;;;10.02;3.78;;;34.70;94.30;;;;;;4959528;28;20508;-79
2023/07/08 11:48:42;;;;;;;9.93;3.55;;;34.80;95.00;;;;;;4925523;29;20044;-79
2023/07/08 11:51:18;;;;;;;4.40;3.13;;;34.60;94.90;;;;;;4927752;28;20827;-80
2023/07/08 11:53:50;;;;;;;6.80;3.05;;;34.60;94.90;;;;;;4944078;28;20049;-79
2023/07/08 11:56:26;;;;;;;5.28;3.20;;;34.80;94.40;;;;;;4951116;28;20047;-79
2023/07/08 11:59:12;;;;;;;4.32;3.17;;;35.00;94.00;;;;;;4946621;28;20087;-79
2023/07/08 12:01:46;;;;;;;6.32;3.63;;;35.00;93.10;;;;;;4954951;28;20078;-80
2023/07/08 12:04:26;;;;;;;4.35;3.63;;;34.90;94.10;;;;;;4944878;28;20054;-80
2023/07/08 12:07:08;;;;;;;6.88;3.20;;;34.80;93.20;;;;;;4943953;28;20051;-80
2023/07/08 12:09:38;;;;;;;6.28;3.35;;;34.80;94.20;;;;;;4947185;28;20444;-80
2023/07/08 12:12:15;;;;;;;6.45;3.30;;;34.80;94.90;;;;;;4948790;28;20635;-79
2023/07/08 12:14:44;;;;;;;4.38;3.28;;;34.60;94.10;;;;;;4937247;28;20054;-79
2023/07/08 12:17:13;;;;;;;4.30;3.08;;;34.60;95.00;;;;;;4947185;28;20047;-79
2023/07/08 12:19:43;;;;;;;3.28;2.67;;;34.50;94.40;;;;;;4931019;29;20047;-79
2023/07/08 12:22:12;;;;;;;5.47;3.30;;;34.50;93.70;;;;;;4946916;29;20051;-80
2023/07/08 12:24:41;;;;;;;9.00;3.70;;;34.60;95.60;;;;;;4951397;28;20575;-79
2023/07/08 12:27:13;;;;;;;3.90;3.05;;;34.80;95.40;;;;;;4927030;28;20488;-79
2023/07/08 12:29:41;;;;;;;8.13;5.80;;;34.90;94.70;;;;;;4941185;28;20106;-78
2023/07/08 12:32:13;;;;;;;4.90;3.67;;;34.90;95.30;;;;;;4962158;28;20118;-77
2023/07/08 12:34:41;;;;;;;5.22;2.83;;;35.20;95.30;;;;;;4952085;28;20131;-78
2023/07/08 12:37:13;;;;;;;5.88;2.90;;;35.50;95.10;;;;;;4934640;29;20106;-77
2023/07/08 12:39:41;;;;;;;6.47;2.85;;;35.70;94.40;;;;;;4932669;28;20047;-78
2023/07/08 12:42:12;;;;;;;5.97;2.78;;;35.70;93.50;;;;;;4941538;28;20051;-76
2023/07/08 12:44:43;;;;;;;5.25;3.20;;;35.70;94.40;;;;;;4950472;28;20138;-77
2023/07/08 12:47:11;;;;;;;4.90;3.33;;;35.60;93.90;;;;;;4946865;28;20139;-77
2023/07/08 12:49:39;;;;;;;4.45;3.03;;;35.50;94.30;;;;;;4947740;28;20073;-77
2023/07/08 12:52:20;;;;;;;4.15;3.08;;;35.70;94.30;;;;;;4947398;28;20106;-77
2023/07/08 12:54:48;;;;;;;4.97;3.55;;;35.90;96.00;;;;;;4937075;28;20051;-76
2023/07/08 12:57:18;;;;;;;4.70;3.13;;;36.00;94.70;;;;;;4934692;28;20094;-78
2023/07/08 12:59:46;;;;;;;5.57;2.88;;;35.90;93.80;;;;;;4951126;28;20070;-77
2023/07/08 13:02:17;;;;;;;4.32;3.13;;;36.10;93.90;;;;;;4932105;29;20047;-78
2023/07/08 13:04:49;;;;;;;4.88;3.00;;;36.20;93.00;;;;;;4947649;28;20050;-76
2023/07/08 13:07:33;;;;;;;5.50;3.60;;;36.30;92.80;;;;;;4947296;28;20617;-76
2023/07/08 13:10:20;;;;;;;6.40;3.00;;;36.50;92.50;;;;;;4919304;29;20114;-76
2023/07/08 13:12:55;;;;;;;7.28;2.83;;;36.60;91.20;;;;;;4933865;28;20055;-78
2023/07/08 13:15:30;;;;;;;5.93;2.90;;;36.70;93.70;;;;;;4954855;28;20107;-75